Time;durP1;ratioP1;P1;durP2;ratioP2;P2;SDS_P1;SDS_P2;PMS_P1;PMS_P2;Temp;Humidity;BMP_temperature;BMP_pressure;BME280_temperature;BME280_humidity;BME280_pressure;Samples;Min_cycle;Max_cycle;Signal;HPM_P1;HPM_P2
2022/01/15 00:01:08;;;;;;;26.77;4.88;;;;;;;25.13;30.76;95193.69;5033252;28;20032;-59
2022/01/15 00:03:42;;;;;;;18.88;4.22;;;;;;;25.11;30.78;95201.13;5045248;28;20039;-59
2022/01/15 00:06:10;;;;;;;24.65;4.80;;;;;;;25.14;30.56;95202.44;5061461;28;20101;-59
2022/01/15 00:08:35;;;;;;;25.65;4.35;;;;;;;25.09;30.91;95197.13;5042448;28;20056;-59
2022/01/15 00:11:09;;;;;;;24.42;4.90;;;;;;;25.08;31.07;95190.22;5052430;28;20110;-59
2022/01/15 00:13:54;;;;;;;21.08;5.55;;;;;;;25.07;30.97;95189.41;5055478;28;20040;-59
2022/01/15 00:16:44;;;;;;;21.95;4.63;;;;;;;25.07;30.90;95188.63;5062333;28;20029;-59
2022/01/15 00:19:21;;;;;;;23.20;4.28;;;;;;;25.08;30.72;95179.59;5060174;28;20040;-59
2022/01/15 00:21:46;;;;;;;18.30;4.20;;;;;;;25.16;30.95;95173.69;5057794;28;20032;-59
2022/01/15 00:24:15;;;;;;;24.65;4.43;;;;;;;25.09;30.58;95173.19;5051046;28;20083;-59
2022/01/15 00:26:43;;;;;;;22.85;4.65;;;;;;;25.06;30.66;95171.88;5055539;28;20069;-59
2022/01/15 00:29:10;;;;;;;18.88;4.20;;;;;;;25.04;30.95;95165.22;5056685;28;20032;-59
2022/01/15 00:31:36;;;;;;;18.23;4.30;;;;;;;25.04;31.02;95171.34;5041492;28;20036;-59
2022/01/15 00:34:08;;;;;;;19.45;4.68;;;;;;;25.02;30.75;95162.84;5049659;28;20040;-59
2022/01/15 00:36:33;;;;;;;22.42;4.82;;;;;;;25.04;30.88;95167.88;5060101;28;20029;-59
2022/01/15 00:39:01;;;;;;;18.30;4.45;;;;;;;25.06;30.78;95166.53;5057599;28;20036;-59
2022/01/15 00:41:29;;;;;;;19.60;4.15;;;;;;;25.07;30.99;95162.00;5041772;28;20044;-59
2022/01/15 00:43:54;;;;;;;25.15;4.60;;;;;;;25.06;30.74;95157.78;5055578;28;20060;-59
2022/01/15 00:46:20;;;;;;;22.60;4.43;;;;;;;25.05;30.58;95161.47;5061868;28;20025;-59
2022/01/15 00:48:48;;;;;;;18.13;4.43;;;;;;;25.00;31.00;95156.16;5049758;28;20036;-59
2022/01/15 00:51:18;;;;;;;23.40;4.45;;;;;;;25.04;30.83;95151.91;5040385;28;20044;-59
2022/01/15 00:53:44;;;;;;;23.40;4.97;;;;;;;25.05;30.95;95156.16;5027485;28;20036;-59
2022/01/15 00:56:11;;;;;;;20.77;4.47;;;;;;;25.08;30.83;95150.31;5046614;28;20051;-59
2022/01/15 00:58:37;;;;;;;20.85;4.22;;;;;;;25.05;30.88;95148.19;5054463;28;20037;-59
2022/01/15 01:01:02;;;;;;;21.10;4.20;;;;;;;25.08;30.75;95145.00;5049468;28;20044;-59
2022/01/15 01:03:30;;;;;;;15.15;4.18;;;;;;;25.04;30.99;95143.94;5061371;28;20054;-59
2022/01/15 01:05:58;;;;;;;20.33;4.43;;;;;;;25.02;30.85;95135.41;5045200;28;20032;-59
2022/01/15 01:08:27;;;;;;;17.92;4.30;;;;;;;25.04;31.14;95134.09;5044697;28;20037;-59
2022/01/15 01:10:56;;;;;;;23.15;4.70;;;;;;;25.04;30.52;95134.09;5033940;28;20040;-59
2022/01/15 01:24:00;;;;;;;24.48;4.50;;;;;;;25.02;30.94;95122.09;5055212;28;20048;-58
2022/01/15 01:32:26;;;;;;;19.90;4.32;;;;;;;25.03;30.70;95118.38;5015086;28;20038;-58
2022/01/15 01:34:52;;;;;;;24.52;4.53;;;;;;;25.07;30.38;95116.78;5012441;28;20069;-58
2022/01/15 01:37:26;;;;;;;22.05;4.63;;;;;;;25.04;30.61;95114.66;5019186;28;20076;-58
2022/01/15 01:40:01;;;;;;;15.38;4.22;;;;;;;25.01;30.53;95118.66;5006355;28;20075;-58
2022/01/15 01:42:40;;;;;;;18.65;3.72;;;;;;;24.95;31.08;95122.41;5008030;28;20045;-58
2022/01/15 01:45:15;;;;;;;24.25;4.57;;;;;;;24.97;30.72;95122.91;5014275;28;20053;-58
2022/01/15 01:47:41;;;;;;;22.45;4.47;;;;;;;24.95;30.98;95117.88;5022159;28;20045;-58
2022/01/15 01:50:19;;;;;;;21.65;4.35;;;;;;;24.92;30.93;95115.75;4999011;28;20050;-58
2022/01/15 01:52:46;;;;;;;22.95;5.03;;;;;;;24.98;30.56;95124.53;5016184;28;20050;-58
2022/01/15 01:55:12;;;;;;;24.90;4.53;;;;;;;24.98;30.85;95120.00;5001744;28;20060;-58
2022/01/15 01:57:38;;;;;;;11.68;3.78;;;;;;;24.93;30.73;95113.91;4997341;28;20041;-58
2022/01/15 02:00:09;;;;;;;20.77;4.18;;;;;;;24.95;30.91;95109.88;5004142;28;20084;-58
2022/01/15 02:02:35;;;;;;;16.25;3.67;;;;;;;24.97;30.65;95118.38;5022128;28;20037;-58
2022/01/15 02:05:01;;;;;;;15.93;3.90;;;;;;;24.96;30.64;95110.69;5018851;28;20103;-58
2022/01/15 02:07:26;;;;;;;17.98;4.22;;;;;;;25.00;30.65;95108.28;5020312;28;20044;-58
2022/01/15 02:10:35;;;;;;;16.33;3.70;;;;;;;25.02;30.59;95111.47;5031810;28;20037;-58
2022/01/15 02:13:01;;;;;;;21.40;4.57;;;;;;;24.98;30.56;95109.34;5055339;28;20033;-60
2022/01/15 02:15:27;;;;;;;17.20;4.10;;;;;;;24.94;30.83;95105.66;5056297;28;20033;-60
2022/01/15 02:17:55;;;;;;;11.73;4.15;;;;;;;24.91;30.69;95100.84;5032423;28;20037;-60
2022/01/15 02:20:59;;;;;;;11.90;3.72;;;;;;;24.94;30.68;95097.66;5022605;28;20028;-60
2022/01/15 02:23:36;;;;;;;16.88;3.28;;;;;;;24.99;30.61;95099.50;5042207;28;20040;-59
2022/01/15 02:26:05;;;;;;;16.60;4.13;;;;;;;25.00;30.54;95100.28;5040648;28;20059;-59
2022/01/15 02:28:38;;;;;;;12.65;3.50;;;;;;;24.93;30.61;95105.91;5044919;28;20029;-59
2022/01/15 02:31:10;;;;;;;12.70;3.55;;;;;;;24.91;30.65;95100.06;5036052;28;20029;-60
2022/01/15 02:33:37;;;;;;;13.65;4.00;;;;;;;24.92;30.69;95101.66;5044206;28;20127;-60
2022/01/15 02:36:06;;;;;;;15.20;3.60;;;;;;;24.90;30.79;95098.47;5034354;28;20037;-60
2022/01/15 02:38:32;;;;;;;16.98;4.03;;;;;;;24.95;30.58;95103.78;5031376;28;20041;-60
2022/01/15 02:40:59;;;;;;;16.88;3.65;;;;;;;24.92;30.73;95102.47;5031905;28;20028;-59
2022/01/15 02:43:36;;;;;;;9.68;3.33;;;;;;;24.88;30.62;95105.91;5058574;28;20048;-60
2022/01/15 02:48:51;;;;;;;13.13;3.25;;;;;;;24.90;30.53;95093.97;5062271;28;20048;-60
2022/01/15 02:51:41;;;;;;;12.97;3.67;;;;;;;24.91;30.24;95097.41;5017006;28;20075;-59
2022/01/15 02:54:07;;;;;;;12.63;3.55;;;;;;;24.91;30.34;95092.88;5026118;28;20269;-60
2022/01/15 02:56:35;;;;;;;10.57;4.00;;;;;;;24.93;30.36;95096.06;5019630;28;20044;-60
2022/01/15 02:59:02;;;;;;;12.38;3.40;;;;;;;24.91;30.48;95092.88;5028297;28;20048;-60
2022/01/15 03:01:28;;;;;;;11.63;3.47;;;;;;;24.91;30.70;95084.91;5024246;28;20037;-59
2022/01/15 03:03:53;;;;;;;7.45;3.20;;;;;;;24.90;30.48;95083.31;5021148;28;20068;-60
2022/01/15 03:06:27;;;;;;;11.77;3.65;;;;;;;24.89;30.39;95076.38;5044536;28;20040;-60
2022/01/15 03:08:53;;;;;;;12.15;3.05;;;;;;;24.89;30.53;95076.38;5037858;28;20054;-60
2022/01/15 03:11:19;;;;;;;8.00;3.15;;;;;;;24.90;30.65;95070.00;5033632;28;20059;-60
2022/01/15 03:13:47;;;;;;;9.07;3.67;;;;;;;24.89;30.36;95064.97;5012644;28;20045;-60
2022/01/15 03:16:15;;;;;;;12.68;3.65;;;;;;;24.85;30.51;95063.91;5026824;28;20037;-59
2022/01/15 03:18:42;;;;;;;14.65;3.50;;;;;;;24.86;30.54;95066.28;5036301;28;20100;-60
2022/01/15 03:21:10;;;;;;;11.02;3.28;;;;;;;24.92;30.51;95059.91;5010635;28;20045;-60
2022/01/15 03:23:44;;;;;;;11.20;3.33;;;;;;;24.89;30.58;95065.75;5029795;28;20158;-59
2022/01/15 03:26:13;;;;;;;12.13;3.60;;;;;;;24.91;30.22;95073.47;5029444;28;20055;-60
2022/01/15 03:28:39;;;;;;;12.02;3.40;;;;;;;24.91;30.43;95062.81;5035611;28;20109;-60
2022/01/15 03:31:06;;;;;;;10.25;3.38;;;;;;;24.89;30.53;95063.09;5034869;28;20067;-60
2022/01/15 03:33:37;;;;;;;10.65;3.30;;;;;;;24.84;30.57;95073.75;5035208;28;20037;-60
2022/01/15 03:36:05;;;;;;;9.40;3.53;;;;;;;24.84;30.49;95063.09;5038963;28;20044;-59
2022/01/15 03:38:34;;;;;;;10.18;3.50;;;;;;;24.82;30.39;95067.09;5041073;28;20032;-60
2022/01/15 03:40:59;;;;;;;12.65;3.78;;;;;;;24.85;30.51;95066.56;5062293;28;20062;-59
2022/01/15 03:43:25;;;;;;;12.98;3.58;;;;;;;24.87;30.46;95059.13;5035167;28;20120;-60
2022/01/15 03:45:51;;;;;;;9.57;3.35;;;;;;;24.90;30.50;95051.41;5064927;28;20155;-60
2022/01/15 03:48:17;;;;;;;9.18;3.05;;;;;;;24.92;30.58;95051.09;5041416;28;20104;-60
2022/01/15 03:50:43;;;;;;;9.57;3.38;;;;;;;24.87;30.43;95057.25;5056094;28;20047;-59
2022/01/15 03:53:11;;;;;;;10.70;3.35;;;;;;;24.87;30.60;95057.25;5037620;28;20025;-59
2022/01/15 03:55:36;;;;;;;8.82;3.10;;;;;;;24.90;30.46;95050.56;5055401;28;20028;-59
2022/01/15 03:58:05;;;;;;;10.23;3.67;;;;;;;24.82;30.40;95051.16;5056382;28;20051;-60
2022/01/15 04:00:30;;;;;;;9.15;3.05;;;;;;;24.85;30.52;95051.41;5043197;28;20044;-59
2022/01/15 04:02:56;;;;;;;9.23;3.38;;;;;;;24.88;30.39;95053.50;5045352;28;20028;-59
2022/01/15 04:05:22;;;;;;;6.38;3.13;;;;;;;24.85;30.61;95043.41;5048008;28;20036;-59
2022/01/15 04:07:47;;;;;;;7.20;3.28;;;;;;;24.85;30.67;95048.75;5052497;28;20119;-59
2022/01/15 04:10:15;;;;;;;9.10;3.15;;;;;;;24.86;30.20;95045.00;5054982;28;20041;-59
2022/01/15 04:12:44;;;;;;;8.20;3.45;;;;;;;24.85;30.28;95048.75;5035464;28;20058;-59
2022/01/15 04:15:13;;;;;;;5.95;3.35;;;;;;;24.83;30.42;95045.56;5041701;28;20032;-60
2022/01/15 04:17:49;;;;;;;8.43;3.40;;;;;;;24.84;30.38;95047.13;5052464;28;20032;-59
2022/01/15 04:20:18;;;;;;;8.60;3.33;;;;;;;24.86;30.54;95042.34;5074071;28;20106;-59
2022/01/15 04:22:48;;;;;;;7.43;3.55;;;;;;;24.83;30.82;95045.56;5062477;28;20075;-59
2022/01/15 04:25:14;;;;;;;8.23;3.67;;;;;;;24.90;30.41;95046.06;5045746;28;20135;-59
2022/01/15 04:27:40;;;;;;;7.95;3.50;;;;;;;24.84;30.21;95041.81;5064747;28;20044;-59
2022/01/15 04:30:16;;;;;;;9.02;3.40;;;;;;;24.86;30.56;95049.53;5049091;28;20040;-59
2022/01/15 04:32:43;;;;;;;9.32;3.58;;;;;;;24.83;30.37;95044.75;5051846;28;20037;-59
2022/01/15 04:35:18;;;;;;;6.22;3.25;;;;;;;24.87;30.25;95051.13;5058330;28;20040;-60
2022/01/15 04:37:47;;;;;;;8.52;3.30;;;;;;;24.84;30.48;95047.13;5052061;28;20063;-59
2022/01/15 04:40:13;;;;;;;8.73;3.33;;;;;;;24.84;30.64;95047.13;5059351;28;20136;-59
2022/01/15 04:42:42;;;;;;;7.22;3.22;;;;;;;24.79;30.35;95049.84;5055407;28;20047;-59
2022/01/15 04:45:29;;;;;;;9.20;3.65;;;;;;;24.74;30.66;95047.19;5007736;28;20135;-59
2022/01/15 04:47:57;;;;;;;8.15;3.35;;;;;;;24.88;30.47;95039.41;5012978;28;20069;-59
2022/01/15 04:50:22;;;;;;;7.25;3.78;;;;;;;24.78;30.42;95042.91;4995834;28;20193;-60
2022/01/15 04:52:51;;;;;;;5.80;3.15;;;;;;;24.74;30.38;95055.94;4987495;28;20049;-60
2022/01/15 04:55:25;;;;;;;7.88;3.60;;;;;;;24.75;30.48;95048.75;4996153;28;20135;-59
2022/01/15 04:57:50;;;;;;;10.68;3.60;;;;;;;24.71;30.39;95048.53;4994347;28;20042;-60
2022/01/15 05:00:24;;;;;;;8.18;3.40;;;;;;;24.75;30.45;95046.09;5004769;28;20041;-59
2022/01/15 05:02:50;;;;;;;7.80;3.60;;;;;;;24.72;30.47;95050.09;5005709;28;20117;-59
2022/01/15 05:05:15;;;;;;;9.48;3.33;;;;;;;24.73;30.41;95050.91;5006505;28;20054;-59
2022/01/15 05:07:42;;;;;;;8.20;3.28;;;;;;;24.78;30.43;95049.03;5009425;28;20052;-59
2022/01/15 05:10:18;;;;;;;10.32;3.40;;;;;;;24.71;30.34;95051.19;4984231;28;20048;-59
2022/01/15 05:12:44;;;;;;;10.45;3.42;;;;;;;24.74;30.34;95047.97;4966456;28;20049;-60
2022/01/15 05:15:13;;;;;;;8.13;3.40;;;;;;;24.76;30.56;95053.81;4973649;28;20048;-59
2022/01/15 05:17:39;;;;;;;8.70;3.55;;;;;;;24.74;30.36;95060.47;5018363;28;20099;-59
2022/01/15 05:20:05;;;;;;;8.77;3.58;;;;;;;24.71;30.55;95059.16;5028051;28;20106;-59
2022/01/15 05:22:32;;;;;;;8.27;3.38;;;;;;;24.74;30.42;95052.50;5008195;28;20050;-59
2022/01/15 05:25:00;;;;;;;9.30;3.15;;;;;;;24.76;30.48;95058.34;5023228;28;20060;-59
2022/01/15 05:27:45;;;;;;;17.23;3.63;;;;;;;24.79;30.63;95063.13;4996421;28;20103;-59
2022/01/15 05:30:13;;;;;;;11.65;3.95;;;;;;;24.77;30.47;95062.63;5014946;28;20108;-60
2022/01/15 05:32:40;;;;;;;11.65;3.80;;;;;;;24.78;30.39;95064.97;4991425;28;20126;-59
2022/01/15 05:35:06;;;;;;;9.20;3.70;;;;;;;24.79;29.73;95055.16;5009139;28;20041;-59
2022/01/15 05:37:34;;;;;;;11.68;3.97;;;;;;;24.80;29.49;95056.72;4991499;28;20048;-59
2022/01/15 05:40:05;;;;;;;12.85;4.70;;;;;;;24.81;29.80;95047.69;4993516;28;20103;-59
2022/01/15 05:42:30;;;;;;;17.02;4.88;;;;;;;24.88;29.54;95042.06;4991815;28;20033;-59
2022/01/15 05:44:56;;;;;;;13.38;4.40;;;;;;;24.89;29.28;95039.16;5041179;28;20044;-59
2022/01/15 05:47:24;;;;;;;19.75;4.43;;;;;;;24.89;28.73;95039.16;5040392;28;20094;-59
2022/01/15 05:49:51;;;;;;;13.13;4.38;;;;;;;24.89;29.05;95039.16;5044039;28;20117;-59
2022/01/15 05:52:16;;;;;;;14.30;4.13;;;;;;;24.88;28.78;95036.75;5030049;28;20049;-59
2022/01/15 05:54:46;;;;;;;21.58;4.82;;;;;;;24.91;28.34;95030.91;5036871;28;20045;-59
2022/01/15 05:57:13;;;;;;;17.25;4.55;;;;;;;24.89;28.53;95033.81;5043215;28;20082;-60
2022/01/15 05:59:39;;;;;;;12.50;4.45;;;;;;;24.90;28.11;95027.44;5060792;28;20048;-60
2022/01/15 06:02:04;;;;;;;16.13;4.22;;;;;;;24.89;28.36;95023.19;5057064;28;20040;-60
2022/01/15 06:04:36;;;;;;;16.88;4.15;;;;;;;24.85;28.17;95024.81;5046522;28;20107;-60
2022/01/15 06:07:04;;;;;;;13.10;4.00;;;;;;;24.89;28.24;95027.72;5050703;28;20037;-60
2022/01/15 06:09:32;;;;;;;16.30;4.35;;;;;;;24.88;28.08;95013.59;5058113;28;20044;-60
2022/01/15 06:12:09;;;;;;;13.38;4.00;;;;;;;24.84;27.86;95017.88;5054699;28;20036;-60
2022/01/15 06:14:36;;;;;;;10.45;3.60;;;;;;;24.86;28.10;95018.41;5043530;28;20063;-60
2022/01/15 06:17:03;;;;;;;13.32;3.97;;;;;;;24.87;28.19;95019.22;5037386;28;20033;-60
2022/01/15 06:19:28;;;;;;;13.43;4.05;;;;;;;24.85;28.38;95011.50;5056609;28;20029;-60
2022/01/15 06:21:56;;;;;;;12.70;3.90;;;;;;;24.87;27.89;95011.25;5058674;28;20056;-60
2022/01/15 06:24:22;;;;;;;11.60;3.80;;;;;;;24.87;28.25;95014.69;5049093;28;20074;-60
2022/01/15 06:26:47;;;;;;;18.10;3.83;;;;;;;24.87;28.08;95013.91;5050966;28;20036;-60
2022/01/15 06:29:14;;;;;;;12.00;3.67;;;;;;;24.86;28.44;95018.41;5049713;28;20101;-60
2022/01/15 06:31:39;;;;;;;16.83;3.75;;;;;;;24.88;28.05;95018.13;5052224;28;20105;-60
2022/01/15 06:34:05;;;;;;;12.35;3.80;;;;;;;24.89;28.36;95009.88;5063171;28;20284;-60
2022/01/15 06:36:30;;;;;;;14.77;4.00;;;;;;;24.90;28.25;95022.13;5062120;28;20048;-60
2022/01/15 06:38:57;;;;;;;14.02;3.95;;;;;;;24.85;27.97;95008.84;5048831;28;20044;-59
2022/01/15 06:41:22;;;;;;;11.07;3.35;;;;;;;24.82;28.04;95004.06;5049810;28;20037;-60
2022/01/15 06:43:47;;;;;;;13.52;3.80;;;;;;;24.84;28.56;95004.56;5045800;28;20028;-59
2022/01/15 06:46:13;;;;;;;13.48;3.70;;;;;;;24.89;28.44;95001.13;5061079;28;20052;-60
2022/01/15 06:48:48;;;;;;;9.85;3.10;;;;;;;24.85;28.51;94992.88;5032154;28;20105;-60
2022/01/15 06:51:14;;;;;;;15.02;3.58;;;;;;;24.82;28.21;94995.28;5058352;28;20044;-60
2022/01/15 06:53:39;;;;;;;9.98;3.20;;;;;;;24.83;28.33;94996.88;5030342;28;20040;-60
2022/01/15 06:56:07;;;;;;;10.18;3.53;;;;;;;24.80;28.64;94997.44;5039281;28;20028;-60
2022/01/15 06:58:34;;;;;;;12.55;3.45;;;;;;;24.81;28.55;95005.13;5058327;28;20032;-60
2022/01/15 07:00:59;;;;;;;12.35;3.47;;;;;;;24.82;28.44;95011.25;5024601;28;20120;-60
2022/01/15 07:03:25;;;;;;;10.70;3.30;;;;;;;24.82;28.59;95008.59;5052363;28;20033;-60
2022/01/15 07:06:01;;;;;;;17.67;3.60;;;;;;;24.83;28.58;94999.53;5050449;28;20044;-60
2022/01/15 07:08:28;;;;;;;10.30;3.17;;;;;;;24.80;28.67;94997.44;5058088;28;20029;-60
2022/01/15 07:10:53;;;;;;;11.32;3.40;;;;;;;24.79;28.63;94999.31;5036524;28;20043;-60
2022/01/15 07:13:20;;;;;;;8.82;3.47;;;;;;;24.81;28.63;94999.81;5047812;28;20038;-60
2022/01/15 07:15:46;;;;;;;14.00;3.00;;;;;;;24.79;28.74;94996.63;5037360;28;20032;-60
2022/01/15 07:18:12;;;;;;;11.90;3.10;;;;;;;24.78;28.93;95005.66;5059989;28;20036;-60
2022/01/15 07:20:51;;;;;;;11.90;3.55;;;;;;;24.81;28.90;94996.34;5062383;28;20041;-60
2022/01/15 07:23:17;;;;;;;10.13;3.15;;;;;;;24.81;29.01;94996.34;5010921;28;20049;-60
2022/01/15 07:25:42;;;;;;;13.88;3.60;;;;;;;24.83;28.86;94992.34;5030142;28;20066;-58
2022/01/15 07:28:08;;;;;;;7.93;3.25;;;;;;;24.83;29.13;94991.53;5042090;28;20082;-58
2022/01/15 07:30:33;;;;;;;8.98;3.20;;;;;;;24.84;28.76;94991.28;5026058;28;20068;-58
2022/01/15 07:32:59;;;;;;;7.65;3.17;;;;;;;24.86;28.95;94999.78;5040862;28;20052;-58
2022/01/15 07:35:24;;;;;;;8.07;3.00;;;;;;;24.86;28.78;94999.78;5059506;28;20090;-57
2022/01/15 07:38:04;;;;;;;12.93;3.67;;;;;;;24.84;28.63;95004.56;5058024;28;20036;-58
2022/01/15 07:40:30;;;;;;;12.93;3.80;;;;;;;24.82;28.57;95005.94;5044449;28;20041;-58
2022/01/15 07:42:55;;;;;;;9.75;3.33;;;;;;;24.79;28.92;95004.63;5028754;28;20062;-58
2022/01/15 07:45:23;;;;;;;11.25;3.35;;;;;;;24.77;29.04;95006.75;5029561;28;20082;-60
2022/01/15 07:47:49;;;;;;;8.27;3.50;;;;;;;24.78;28.69;95001.13;5026758;28;20036;-59
2022/01/15 07:50:17;;;;;;;14.23;3.50;;;;;;;24.77;28.86;94999.56;5045407;28;20070;-59
2022/01/15 07:52:55;;;;;;;8.15;3.47;;;;;;;24.78;29.15;95003.81;5029977;28;20071;-59
2022/01/15 07:55:24;;;;;;;12.38;3.78;;;;;;;24.81;29.17;95002.47;5057490;28;20170;-59
2022/01/15 07:57:49;;;;;;;10.98;3.58;;;;;;;24.80;29.16;94994.75;5062669;28;20123;-59
2022/01/15 08:00:15;;;;;;;12.15;2.90;;;;;;;24.80;29.11;94998.22;5060597;28;20033;-59
2022/01/15 08:02:43;;;;;;;10.00;3.00;;;;;;;24.81;28.86;94997.16;5030116;28;20041;-59
2022/01/15 08:05:09;;;;;;;10.50;3.15;;;;;;;24.81;29.38;94988.34;5027579;28;20127;-59
2022/01/15 08:07:49;;;;;;;11.85;3.13;;;;;;;24.81;29.12;94999.00;5046736;28;20029;-59
2022/01/15 08:10:17;;;;;;;10.90;3.03;;;;;;;24.87;29.14;94990.75;5053030;28;20032;-58
2022/01/15 08:12:46;;;;;;;13.82;3.53;;;;;;;24.83;29.49;94986.22;5044453;28;20071;-59
2022/01/15 08:15:13;;;;;;;13.10;3.38;;;;;;;24.85;29.51;94994.75;5044024;28;20040;-59
2022/01/15 08:17:38;;;;;;;14.50;3.53;;;;;;;24.81;29.67;94986.53;5044520;28;20041;-59
2022/01/15 08:20:15;;;;;;;10.48;3.13;;;;;;;24.82;30.01;94988.09;5038953;28;20059;-60
2022/01/15 08:22:42;;;;;;;13.55;3.67;;;;;;;24.84;29.65;94988.63;5054062;28;20036;-60
2022/01/15 08:25:09;;;;;;;16.05;4.00;;;;;;;24.81;30.18;94993.69;5055060;28;20028;-60
2022/01/15 08:27:35;;;;;;;19.08;4.90;;;;;;;24.84;30.35;94990.50;5044992;28;20062;-60
2022/01/15 08:30:07;;;;;;;13.45;5.60;;;;;;;24.81;29.85;94991.84;5009999;28;20060;-60
2022/01/15 08:32:33;;;;;;;12.23;4.47;;;;;;;24.82;29.46;94989.97;5063737;28;20040;-60
2022/01/15 08:34:58;;;;;;;10.95;4.25;;;;;;;24.79;29.47;94980.69;5057085;28;20029;-61
2022/01/15 08:37:29;;;;;;;11.98;4.13;;;;;;;24.79;29.82;94980.69;5062095;28;20067;-61
2022/01/15 08:40:16;;;;;;;13.55;4.35;;;;;;;24.85;29.75;94984.13;5043612;28;20094;-61
2022/01/15 08:42:42;;;;;;;11.50;3.85;;;;;;;24.83;29.28;94987.03;5049411;28;20069;-61
2022/01/15 08:45:08;;;;;;;11.52;4.05;;;;;;;24.81;29.68;94989.19;5045023;28;20033;-60
2022/01/15 08:47:36;;;;;;;14.75;4.32;;;;;;;24.83;29.66;94992.34;5048101;28;20060;-61
2022/01/15 08:50:08;;;;;;;12.27;4.65;;;;;;;24.81;29.61;94985.69;5047181;28;20104;-61
2022/01/15 08:52:36;;;;;;;14.05;4.22;;;;;;;24.79;29.97;94983.34;5064321;28;20032;-60
2022/01/15 08:55:03;;;;;;;15.63;4.57;;;;;;;24.73;30.35;94979.91;5058680;28;20084;-60
2022/01/15 08:57:28;;;;;;;12.82;4.57;;;;;;;24.65;30.69;94982.31;5067177;28;20025;-61
2022/01/15 08:59:56;;;;;;;15.90;5.03;;;;;;;24.67;29.87;94990.81;5062123;28;20036;-60
2022/01/15 09:02:22;;;;;;;11.02;4.30;;;;;;;24.75;29.86;94988.41;5055346;28;20040;-60
2022/01/15 09:05:08;;;;;;;17.85;4.15;;;;;;;24.79;29.84;94986.00;5045753;28;20083;-61
2022/01/15 09:07:34;;;;;;;13.07;3.78;;;;;;;24.80;30.57;94987.56;4964984;28;20110;-61
2022/01/15 09:10:02;;;;;;;15.70;4.10;;;;;;;24.81;30.13;94977.72;4964204;28;20046;-61
2022/01/15 09:14:43;;;;;;;13.57;4.05;;;;;;;24.42;30.92;94981.03;5058339;28;20386;-57
2022/01/15 09:17:11;;;;;;;16.27;4.28;;;;;;;24.58;30.93;94980.75;5043309;28;20120;-57
2022/01/15 09:19:36;;;;;;;9.93;3.83;;;;;;;24.66;31.14;94986.59;5058485;28;20040;-57
2022/01/15 09:22:13;;;;;;;16.63;4.03;;;;;;;24.75;30.74;94982.28;5040195;28;20063;-57
2022/01/15 09:24:45;;;;;;;12.38;3.78;;;;;;;24.76;30.60;94976.69;5070170;28;20044;-57
2022/01/15 09:30:13;;;;;;;16.20;4.10;;;;;;;24.80;30.42;94987.56;5041113;28;20075;-57
2022/01/15 09:32:40;;;;;;;13.55;4.10;;;;;;;24.80;30.02;94982.25;5047723;28;20067;-57
2022/01/15 09:35:08;;;;;;;14.32;4.53;;;;;;;24.81;30.22;94981.19;5046613;28;20117;-57
2022/01/15 09:37:33;;;;;;;14.65;4.18;;;;;;;24.85;30.35;94989.44;5043312;28;20108;-57
2022/01/15 09:39:59;;;;;;;18.73;4.35;;;;;;;24.87;30.37;94981.97;5060726;28;20065;-57
2022/01/15 09:42:25;;;;;;;13.80;4.10;;;;;;;24.90;30.53;94981.41;5027092;28;20032;-57
2022/01/15 09:45:11;;;;;;;12.93;3.40;;;;;;;24.90;30.28;94992.88;5046427;28;20094;-57
2022/01/15 09:47:39;;;;;;;14.75;3.95;;;;;;;24.94;30.23;94982.44;5040430;28;20048;-57
2022/01/15 09:50:10;;;;;;;23.98;4.60;;;;;;;24.88;30.52;94979.00;5055820;28;20040;-57
2022/01/15 09:52:36;;;;;;;13.50;4.13;;;;;;;24.87;30.37;94984.63;5036771;28;20049;-57
2022/01/15 09:55:03;;;;;;;21.55;4.40;;;;;;;24.86;29.96;94983.81;5050005;28;20048;-57
2022/01/15 09:57:34;;;;;;;13.50;4.50;;;;;;;24.81;29.90;94975.88;5037391;28;20056;-57
2022/01/15 10:00:01;;;;;;;11.52;3.90;;;;;;;24.85;29.84;94978.78;5020962;28;20037;-57
2022/01/15 10:02:28;;;;;;;11.02;4.30;;;;;;;24.82;29.85;94979.31;5049901;28;20218;-57
2022/01/15 10:04:56;;;;;;;14.98;4.57;;;;;;;24.82;29.96;94974.00;5049013;28;20040;-57
2022/01/15 10:07:25;;;;;;;11.80;4.15;;;;;;;24.83;30.07;94970.25;5047596;28;20041;-57
2022/01/15 10:09:55;;;;;;;8.00;4.13;;;;;;;24.86;29.87;94975.84;5026163;28;20063;-57
2022/01/15 10:12:31;;;;;;;11.40;3.80;;;;;;;24.86;30.00;94975.03;5045658;28;20323;-57
2022/01/15 10:15:09;;;;;;;12.57;4.10;;;;;;;24.81;30.23;94970.56;5033352;28;20313;-57
2022/01/15 10:17:36;;;;;;;9.32;3.60;;;;;;;24.81;30.28;94973.22;5043419;28;20051;-57
2022/01/15 10:20:12;;;;;;;12.52;3.65;;;;;;;24.80;30.11;94971.63;5030111;28;20080;-57
2022/01/15 10:22:45;;;;;;;11.75;3.45;;;;;;;24.84;30.42;94971.88;5046138;28;20062;-58
2022/01/15 10:25:17;;;;;;;9.15;3.65;;;;;;;24.86;30.00;94975.03;5037032;28;20040;-58
2022/01/15 10:27:44;;;;;;;8.13;3.28;;;;;;;24.90;30.34;94971.59;5036879;28;20033;-58
2022/01/15 10:30:13;;;;;;;9.80;3.88;;;;;;;24.90;30.02;94976.91;5022350;28;20124;-58
2022/01/15 10:32:40;;;;;;;10.10;3.40;;;;;;;24.91;30.26;94973.16;5035119;28;20040;-58
2022/01/15 10:35:22;;;;;;;10.27;3.28;;;;;;;24.86;30.36;94970.50;5033278;28;20040;-58
2022/01/15 10:37:51;;;;;;;8.10;3.53;;;;;;;24.86;30.30;94962.53;5016177;28;20050;-58
2022/01/15 10:40:17;;;;;;;18.13;4.50;;;;;;;24.91;30.16;94962.53;5031912;28;20038;-58
2022/01/15 10:42:49;;;;;;;9.38;4.40;;;;;;;24.90;29.71;94955.63;5039425;28;20033;-58
2022/01/15 10:45:45;;;;;;;10.55;4.10;;;;;;;24.93;29.88;94948.94;5006301;28;20041;-58
2022/01/15 10:48:12;;;;;;;8.88;3.90;;;;;;;24.94;29.94;94951.34;5032976;28;20036;-58
2022/01/15 10:50:38;;;;;;;8.80;4.15;;;;;;;24.93;29.61;94948.94;5026327;28;20135;-58
2022/01/15 10:53:10;;;;;;;9.80;4.30;;;;;;;24.91;29.76;94941.22;5039351;28;20072;-58
2022/01/15 10:55:41;;;;;;;9.15;3.67;;;;;;;24.95;29.79;94939.59;5018445;28;20034;-58
2022/01/15 10:58:11;;;;;;;6.25;3.58;;;;;;;24.93;29.76;94941.75;5033228;28;20040;-58
2022/01/15 11:00:37;;;;;;;10.75;3.78;;;;;;;24.98;29.70;94933.75;5038316;28;20033;-58
2022/01/15 11:03:07;;;;;;;8.13;4.00;;;;;;;24.95;29.83;94928.97;5035372;28;20044;-58
2022/01/15 11:05:34;;;;;;;8.40;4.13;;;;;;;25.00;29.88;94927.34;5044628;28;20041;-58
2022/01/15 11:08:17;;;;;;;5.75;3.22;;;;;;;24.95;30.04;94915.66;5034889;28;20117;-58
2022/01/15 11:10:56;;;;;;;7.53;3.72;;;;;;;24.93;30.26;94922.34;5036309;28;20141;-58
2022/01/15 11:13:30;;;;;;;7.20;3.40;;;;;;;24.98;30.26;94923.09;5034075;28;20072;-58
2022/01/15 11:16:05;;;;;;;7.82;3.65;;;;;;;24.97;30.22;94918.84;5035214;28;20101;-58
2022/01/15 11:18:35;;;;;;;11.23;4.00;;;;;;;25.00;30.17;94916.69;5035278;28;20060;-58
2022/01/15 11:21:12;;;;;;;5.25;3.53;;;;;;;25.03;30.06;94913.50;5021712;28;20033;-58
2022/01/15 11:23:38;;;;;;;8.15;3.95;;;;;;;25.01;30.57;94908.44;5034921;28;20123;-58
2022/01/15 11:26:11;;;;;;;8.90;4.10;;;;;;;24.97;30.62;94910.06;5003232;28;20036;-58
2022/01/15 11:28:41;;;;;;;8.98;3.95;;;;;;;25.00;30.64;94906.06;5035406;28;20050;-58
2022/01/15 11:31:11;;;;;;;11.40;4.78;;;;;;;24.93;31.19;94899.19;5036792;28;20025;-59
2022/01/15 11:33:50;;;;;;;7.70;4.43;;;;;;;25.05;31.06;94893.50;5036551;28;20040;-59
2022/01/15 11:36:40;;;;;;;9.32;4.40;;;;;;;25.15;30.68;94904.09;5031586;28;20037;-59
2022/01/15 11:39:07;;;;;;;14.23;4.55;;;;;;;25.12;30.90;94906.53;5036743;28;20029;-58
2022/01/15 11:41:33;;;;;;;9.50;4.38;;;;;;;25.12;31.09;94893.22;5038006;28;20033;-59
2022/01/15 11:44:29;;;;;;;8.77;4.25;;;;;;;25.18;31.23;94889.44;5032314;28;20048;-58
2022/01/15 11:46:56;;;;;;;9.52;3.78;;;;;;;25.14;31.28;94888.41;5036540;28;20033;-58
2022/01/15 11:49:33;;;;;;;8.48;4.05;;;;;;;25.09;31.44;94885.78;5024784;28;20055;-58
2022/01/15 11:52:08;;;;;;;12.25;4.40;;;;;;;25.06;31.46;94883.69;5025583;28;20052;-59
2022/01/15 11:54:37;;;;;;;12.13;4.00;;;;;;;25.04;31.18;94881.31;5034583;28;20211;-59
2022/01/15 11:57:06;;;;;;;11.98;4.32;;;;;;;25.09;31.32;94883.94;5038578;28;20025;-59
2022/01/15 11:59:32;;;;;;;12.05;4.07;;;;;;;25.10;31.58;94868.75;5033607;28;20029;-59
2022/01/15 12:01:59;;;;;;;12.75;4.50;;;;;;;25.11;31.73;94871.16;5032604;28;20045;-59